Time;durP1;ratioP1;P1;durP2;ratioP2;P2;SDS_P1;SDS_P2;PMS_P1;PMS_P2;Temp;Humidity;BMP_temperature;BMP_pressure;BME280_temperature;BME280_humidity;BME280_pressure;Samples;Min_cycle;Max_cycle;Signal;HPM_P1;HPM_P2
2021/12/03 00:00:46;;;;;;;0.10;0.10;;;;;;;;;;4199377;28;20098;-40
2021/12/03 00:02:47;;;;;;;0.20;0.20;;;;;;;;;;4199133;28;20118;-39
2021/12/03 00:04:48;;;;;;;0.35;0.20;;;;;;;;;;4199268;28;20094;-41
2021/12/03 00:06:50;;;;;;;0.10;0.10;;;;;;;;;;4199564;28;20086;-42
2021/12/03 00:08:51;;;;;;;0.10;0.10;;;;;;;;;;4198764;28;20550;-41
2021/12/03 00:10:55;;;;;;;0.20;0.10;;;;;;;;;;4199246;28;20102;-42
2021/12/03 00:12:58;;;;;;;0.35;0.20;;;;;;;;;;4199345;28;20060;-41
2021/12/03 00:14:59;;;;;;;0.20;0.13;;;;;;;;;;4199082;28;20105;-41
2021/12/03 00:17:01;;;;;;;0.20;0.10;;;;;;;;;;4199518;28;20093;-41
2021/12/03 00:19:02;;;;;;;0.20;0.20;;;;;;;;;;4199349;28;20093;-41
2021/12/03 00:21:07;;;;;;;0.10;0.10;;;;;;;;;;4199332;28;20056;-41
2021/12/03 00:23:08;;;;;;;0.30;0.10;;;;;;;;;;4198514;28;20118;-39
2021/12/03 00:25:10;;;;;;;0.32;0.28;;;;;;;;;;4198912;28;20485;-42
2021/12/03 00:27:11;;;;;;;0.15;0.15;;;;;;;;;;4198968;28;20079;-41
2021/12/03 00:29:12;;;;;;;0.30;0.20;;;;;;;;;;4181345;28;20069;-39
2021/12/03 00:31:14;;;;;;;0.30;0.20;;;;;;;;;;4198585;28;20557;-38
2021/12/03 00:33:15;;;;;;;0.15;0.15;;;;;;;;;;4198953;28;20067;-38
2021/12/03 00:35:17;;;;;;;0.10;0.10;;;;;;;;;;4198805;28;20056;-41
2021/12/03 00:37:18;;;;;;;0.10;0.10;;;;;;;;;;4198811;28;20102;-41
2021/12/03 00:39:19;;;;;;;0.73;0.10;;;;;;;;;;4198174;28;20386;-41
2021/12/03 00:41:22;;;;;;;0.20;0.20;;;;;;;;;;4199011;28;20090;-43
2021/12/03 00:43:23;;;;;;;0.25;0.20;;;;;;;;;;4198537;28;20114;-42
2021/12/03 00:45:24;;;;;;;0.10;0.10;;;;;;;;;;4198722;28;20110;-39
2021/12/03 00:47:25;;;;;;;0.20;0.20;;;;;;;;;;4198908;28;20155;-38
2021/12/03 00:49:27;;;;;;;0.10;0.10;;;;;;;;;;4198558;28;20409;-41
2021/12/03 00:51:28;;;;;;;0.10;0.10;;;;;;;;;;4198611;28;20389;-41
2021/12/03 00:53:29;;;;;;;0.20;0.10;;;;;;;;;;4197958;28;20060;-41
2021/12/03 00:55:31;;;;;;;0.20;0.17;;;;;;;;;;4198665;28;20056;-41
2021/12/03 00:57:32;;;;;;;0.43;0.10;;;;;;;;;;4198468;28;20057;-40
2021/12/03 00:59:35;;;;;;;0.13;0.10;;;;;;;;;;4198523;28;20484;-41
2021/12/03 01:01:38;;;;;;;0.30;0.13;;;;;;;;;;4198600;28;20056;-39
2021/12/03 01:03:42;;;;;;;0.20;0.10;;;;;;;;;;4198283;28;20053;-39
2021/12/03 01:05:43;;;;;;;0.20;0.20;;;;;;;;;;4198697;28;20053;-39
2021/12/03 01:07:44;;;;;;;0.10;0.10;;;;;;;;;;4197867;28;20082;-40
2021/12/03 01:09:45;;;;;;;0.10;0.10;;;;;;;;;;4197780;28;20198;-41
2021/12/03 01:11:47;;;;;;;0.10;0.10;;;;;;;;;;4197903;28;20056;-40
2021/12/03 01:13:48;;;;;;;0.20;0.20;;;;;;;;;;4198231;28;20098;-42
2021/12/03 01:15:50;;;;;;;0.17;0.10;;;;;;;;;;4198401;28;20519;-42
2021/12/03 01:17:52;;;;;;;0.20;0.20;;;;;;;;;;4197923;28;20400;-42
2021/12/03 01:19:56;;;;;;;0.00;0.00;;;;;;;;;;4197664;28;20052;-40
2021/12/03 01:21:57;;;;;;;1.00;0.10;;;;;;;;;;4197976;28;20507;-41
2021/12/03 01:23:59;;;;;;;0.30;0.20;;;;;;;;;;4197069;28;20428;-42
2021/12/03 01:26:02;;;;;;;0.47;0.10;;;;;;;;;;4197908;28;20550;-40
2021/12/03 01:28:04;;;;;;;0.30;0.20;;;;;;;;;;4197909;28;20056;-39
2021/12/03 01:30:08;;;;;;;0.38;0.20;;;;;;;;;;4197865;28;20110;-39
2021/12/03 01:32:09;;;;;;;0.30;0.13;;;;;;;;;;4197883;28;20405;-41
2021/12/03 01:34:10;;;;;;;2.67;0.20;;;;;;;;;;4197726;28;20063;-42
2021/12/03 01:36:12;;;;;;;0.13;0.13;;;;;;;;;;4198097;28;20064;-40
2021/12/03 01:38:13;;;;;;;0.10;0.10;;;;;;;;;;4197431;28;20106;-42
2021/12/03 01:40:18;;;;;;;0.15;0.15;;;;;;;;;;4197923;28;20063;-41
2021/12/03 01:42:19;;;;;;;0.20;0.20;;;;;;;;;;4197870;28;20114;-41
2021/12/03 01:44:20;;;;;;;0.20;0.20;;;;;;;;;;4197536;28;20466;-42
2021/12/03 01:46:21;;;;;;;0.20;0.10;;;;;;;;;;4197585;28;20048;-40
2021/12/03 01:48:23;;;;;;;0.35;0.22;;;;;;;;;;4197544;28;20068;-40
2021/12/03 01:50:29;;;;;;;0.32;0.10;;;;;;;;;;4180205;28;20117;-40
2021/12/03 01:52:30;;;;;;;0.15;0.15;;;;;;;;;;4197642;28;20075;-42
2021/12/03 01:54:31;;;;;;;0.20;0.10;;;;;;;;;;4197296;28;20087;-41
2021/12/03 01:56:32;;;;;;;0.20;0.20;;;;;;;;;;4197468;28;20083;-42
2021/12/03 01:58:34;;;;;;;0.32;0.20;;;;;;;;;;4179716;28;20452;-41
2021/12/03 02:00:53;;;;;;;0.10;0.05;;;;;;;;;;4197678;28;20441;-41
2021/12/03 02:02:55;;;;;;;0.08;0.05;;;;;;;;;;4197767;28;20060;-41
2021/12/03 02:04:58;;;;;;;0.13;0.10;;;;;;;;;;4197516;28;20056;-41
2021/12/03 02:07:00;;;;;;;0.20;0.20;;;;;;;;;;4197598;28;20106;-40
2021/12/03 02:09:01;;;;;;;0.15;0.10;;;;;;;;;;4197267;28;20053;-42
2021/12/03 02:11:04;;;;;;;0.25;0.20;;;;;;;;;;4197519;28;20488;-41
2021/12/03 02:13:05;;;;;;;0.38;0.20;;;;;;;;;;4181664;28;20061;-38
2021/12/03 02:15:07;;;;;;;0.20;0.20;;;;;;;;;;4181117;28;20203;-42
2021/12/03 02:17:08;;;;;;;0.20;0.17;;;;;;;;;;4179802;28;20107;-41
2021/12/03 02:19:09;;;;;;;0.20;0.10;;;;;;;;;;4163033;28;20054;-40
2021/12/03 02:21:12;;;;;;;0.13;0.13;;;;;;;;;;4162966;28;20061;-42
2021/12/03 02:23:13;;;;;;;0.20;0.20;;;;;;;;;;4180092;28;20064;-41
2021/12/03 02:25:20;;;;;;;0.10;0.10;;;;;;;;;;4180881;28;20053;-40
2021/12/03 02:27:21;;;;;;;0.40;0.20;;;;;;;;;;4180981;28;20098;-39
2021/12/03 02:29:22;;;;;;;0.10;0.10;;;;;;;;;;4180716;28;20061;-42
2021/12/03 02:31:24;;;;;;;0.65;0.20;;;;;;;;;;4180575;28;20057;-41
2021/12/03 02:33:26;;;;;;;0.13;0.13;;;;;;;;;;4180473;28;20059;-40
2021/12/03 02:35:27;;;;;;;0.10;0.10;;;;;;;;;;4180655;28;20259;-41
2021/12/03 02:37:28;;;;;;;0.10;0.10;;;;;;;;;;4180669;28;20057;-41
2021/12/03 02:39:29;;;;;;;0.20;0.20;;;;;;;;;;4180340;28;20105;-40
2021/12/03 02:41:30;;;;;;;0.10;0.10;;;;;;;;;;4180647;28;20111;-41
2021/12/03 02:43:32;;;;;;;0.28;0.20;;;;;;;;;;4180706;28;20053;-38
2021/12/03 02:45:33;;;;;;;0.10;0.10;;;;;;;;;;4180749;28;20053;-41
2021/12/03 02:47:35;;;;;;;0.20;0.20;;;;;;;;;;4180491;28;20551;-42
2021/12/03 02:49:38;;;;;;;0.10;0.10;;;;;;;;;;4180527;28;20111;-38
2021/12/03 02:51:40;;;;;;;0.10;0.10;;;;;;;;;;4181047;28;20132;-40
2021/12/03 02:53:42;;;;;;;0.20;0.13;;;;;;;;;;4180174;28;20102;-40
2021/12/03 02:55:43;;;;;;;0.20;0.15;;;;;;;;;;4180572;28;20056;-39
2021/12/03 02:57:45;;;;;;;0.15;0.15;;;;;;;;;;4180558;28;20056;-37
2021/12/03 02:59:46;;;;;;;0.15;0.15;;;;;;;;;;4180892;28;20060;-41
2021/12/03 03:01:47;;;;;;;0.40;0.30;;;;;;;;;;4180879;28;20071;-39
2021/12/03 03:03:49;;;;;;;0.20;0.20;;;;;;;;;;4180256;28;20049;-41
2021/12/03 03:05:58;;;;;;;0.35;0.28;;;;;;;;;;4180425;28;20860;-42
2021/12/03 03:07:59;;;;;;;0.20;0.17;;;;;;;;;;4180200;28;20095;-40
2021/12/03 03:10:02;;;;;;;0.25;0.17;;;;;;;;;;4180455;28;20064;-42
2021/12/03 03:12:04;;;;;;;0.10;0.10;;;;;;;;;;4180203;28;20452;-42
2021/12/03 03:14:05;;;;;;;0.10;0.10;;;;;;;;;;4180273;28;20477;-39
2021/12/03 03:16:06;;;;;;;0.10;0.10;;;;;;;;;;4180415;28;20053;-41
2021/12/03 03:18:20;;;;;;;0.10;0.10;;;;;;;;;;4179245;28;20052;-40
2021/12/03 03:20:22;;;;;;;0.20;0.20;;;;;;;;;;4162857;28;20092;-38
2021/12/03 03:22:23;;;;;;;0.30;0.28;;;;;;;;;;4162605;28;20403;-38
2021/12/03 03:24:25;;;;;;;0.17;0.10;;;;;;;;;;4179663;28;20409;-40
2021/12/03 03:26:27;;;;;;;0.50;0.20;;;;;;;;;;4180118;28;20114;-42
2021/12/03 03:28:29;;;;;;;0.20;0.20;;;;;;;;;;4162488;28;20103;-41
2021/12/03 03:30:30;;;;;;;0.30;0.20;;;;;;;;;;4162752;28;20057;-41
2021/12/03 03:32:31;;;;;;;0.17;0.17;;;;;;;;;;4180198;28;20107;-43
2021/12/03 03:34:32;;;;;;;0.10;0.10;;;;;;;;;;4164526;28;20057;-39
2021/12/03 03:36:37;;;;;;;0.10;0.10;;;;;;;;;;4183521;28;20056;-42
2021/12/03 03:38:38;;;;;;;0.10;0.10;;;;;;;;;;4182737;28;20079;-38
2021/12/03 03:40:40;;;;;;;0.25;0.17;;;;;;;;;;4183383;28;20386;-41
2021/12/03 03:42:41;;;;;;;0.20;0.17;;;;;;;;;;4183148;28;20504;-41
2021/12/03 03:44:43;;;;;;;0.10;0.10;;;;;;;;;;4196986;28;20045;-40
2021/12/03 03:46:45;;;;;;;0.10;0.10;;;;;;;;;;4199716;28;20503;-38
2021/12/03 03:48:46;;;;;;;0.25;0.10;;;;;;;;;;4199579;28;20079;-39
2021/12/03 03:50:47;;;;;;;0.10;0.10;;;;;;;;;;4199527;28;20060;-40
2021/12/03 03:52:50;;;;;;;0.10;0.10;;;;;;;;;;4199290;28;20061;-41
2021/12/03 03:54:52;;;;;;;0.10;0.10;;;;;;;;;;4199506;28;20122;-40
2021/12/03 03:56:53;;;;;;;0.10;0.10;;;;;;;;;;4199707;28;20102;-41
2021/12/03 03:58:55;;;;;;;0.17;0.10;;;;;;;;;;4199487;28;20504;-39
2021/12/03 04:00:56;;;;;;;0.22;0.10;;;;;;;;;;4199415;28;20060;-41
2021/12/03 04:02:57;;;;;;;0.25;0.15;;;;;;;;;;4199146;28;20057;-42
2021/12/03 04:04:58;;;;;;;0.20;0.10;;;;;;;;;;4199448;28;20079;-40
2021/12/03 04:07:00;;;;;;;0.30;0.13;;;;;;;;;;4199577;28;20060;-41
2021/12/03 04:09:01;;;;;;;0.15;0.10;;;;;;;;;;4198792;28;20044;-42
2021/12/03 04:11:03;;;;;;;0.20;0.20;;;;;;;;;;4199573;28;20052;-38
2021/12/03 04:13:04;;;;;;;0.40;0.30;;;;;;;;;;4197548;28;20057;-39
2021/12/03 04:15:07;;;;;;;0.10;0.10;;;;;;;;;;4182858;28;20107;-41
2021/12/03 04:17:08;;;;;;;0.10;0.10;;;;;;;;;;4182532;28;20118;-39
2021/12/03 04:19:09;;;;;;;0.30;0.20;;;;;;;;;;4182768;28;20053;-41
2021/12/03 04:21:10;;;;;;;0.10;0.10;;;;;;;;;;4182669;28;20079;-41
2021/12/03 04:23:18;;;;;;;0.20;0.20;;;;;;;;;;4164110;28;20061;-40
2021/12/03 04:25:22;;;;;;;0.43;0.30;;;;;;;;;;4182272;28;20420;-41
2021/12/03 04:27:23;;;;;;;0.20;0.13;;;;;;;;;;4182486;28;20053;-41
2021/12/03 04:29:24;;;;;;;0.20;0.20;;;;;;;;;;4182623;28;20053;-41
2021/12/03 04:31:25;;;;;;;0.10;0.10;;;;;;;;;;4164584;28;20112;-40
2021/12/03 04:33:27;;;;;;;0.20;0.20;;;;;;;;;;4182015;28;20456;-40
2021/12/03 04:35:28;;;;;;;0.22;0.10;;;;;;;;;;4182316;28;20103;-42
2021/12/03 04:37:29;;;;;;;0.20;0.10;;;;;;;;;;4164555;28;20457;-42
2021/12/03 04:39:30;;;;;;;0.10;0.10;;;;;;;;;;4182085;28;20061;-43
2021/12/03 04:41:31;;;;;;;0.10;0.10;;;;;;;;;;4182440;28;20060;-39
2021/12/03 04:43:33;;;;;;;0.10;0.10;;;;;;;;;;4182042;28;20057;-42
2021/12/03 04:45:34;;;;;;;0.10;0.10;;;;;;;;;;4181776;28;20323;-40
2021/12/03 04:47:35;;;;;;;0.10;0.10;;;;;;;;;;4181041;28;20056;-43
2021/12/03 04:49:37;;;;;;;0.20;0.20;;;;;;;;;;4182277;28;20056;-37
2021/12/03 04:51:38;;;;;;;0.17;0.10;;;;;;;;;;4182245;28;20057;-40
2021/12/03 04:53:39;;;;;;;0.10;0.10;;;;;;;;;;4181406;28;20068;-39
2021/12/03 04:55:41;;;;;;;0.20;0.20;;;;;;;;;;4181985;28;20493;-41
2021/12/03 04:57:42;;;;;;;0.93;0.17;;;;;;;;;;4181825;28;20550;-39
2021/12/03 04:59:44;;;;;;;0.50;0.10;;;;;;;;;;4180680;28;20124;-41
2021/12/03 05:01:45;;;;;;;0.10;0.10;;;;;;;;;;4182092;28;20123;-41
2021/12/03 05:03:46;;;;;;;0.10;0.10;;;;;;;;;;4181360;28;20056;-42
2021/12/03 05:05:58;;;;;;;0.20;0.20;;;;;;;;;;4180620;28;20095;-38
2021/12/03 05:08:10;;;;;;;0.08;0.08;;;;;;;;;;4163824;28;20057;-38
2021/12/03 05:10:11;;;;;;;0.10;0.10;;;;;;;;;;4182010;28;20102;-40
2021/12/03 05:12:13;;;;;;;0.20;0.20;;;;;;;;;;4181769;28;20057;-41
2021/12/03 05:14:14;;;;;;;0.20;0.20;;;;;;;;;;4181645;28;20099;-40
2021/12/03 05:16:16;;;;;;;0.30;0.20;;;;;;;;;;4181693;28;20087;-42
2021/12/03 05:18:19;;;;;;;0.22;0.15;;;;;;;;;;4181916;28;20056;-41
2021/12/03 05:20:20;;;;;;;0.10;0.10;;;;;;;;;;4181723;28;20444;-38
2021/12/03 05:22:21;;;;;;;0.10;0.10;;;;;;;;;;4181525;28;20091;-41
2021/12/03 05:24:23;;;;;;;0.45;0.10;;;;;;;;;;4180676;28;20130;-43
2021/12/03 05:26:24;;;;;;;0.95;0.10;;;;;;;;;;4181560;28;20057;-40
2021/12/03 05:28:27;;;;;;;0.43;0.20;;;;;;;;;;4181325;28;20382;-41
2021/12/03 05:30:28;;;;;;;0.43;0.22;;;;;;;;;;4181580;28;20064;-39
2021/12/03 05:32:29;;;;;;;0.10;0.10;;;;;;;;;;4181600;28;20056;-37
2021/12/03 05:34:30;;;;;;;0.20;0.20;;;;;;;;;;4163958;28;20253;-42
2021/12/03 05:36:32;;;;;;;0.30;0.30;;;;;;;;;;4181511;28;20049;-42
2021/12/03 05:38:33;;;;;;;0.20;0.20;;;;;;;;;;4181139;28;20056;-42
2021/12/03 05:40:34;;;;;;;0.17;0.17;;;;;;;;;;4181265;28;20079;-40
2021/12/03 05:42:36;;;;;;;0.28;0.20;;;;;;;;;;4181108;28;20409;-40
2021/12/03 05:44:37;;;;;;;0.20;0.20;;;;;;;;;;4181080;28;20430;-42
2021/12/03 05:46:39;;;;;;;0.20;0.20;;;;;;;;;;4181290;28;20044;-40
2021/12/03 05:48:40;;;;;;;0.20;0.20;;;;;;;;;;4181018;28;20056;-41
2021/12/03 05:50:42;;;;;;;1.48;0.20;;;;;;;;;;4163683;28;20053;-40
2021/12/03 05:52:44;;;;;;;0.40;0.40;;;;;;;;;;4180485;28;20064;-40
2021/12/03 05:54:46;;;;;;;0.20;0.20;;;;;;;;;;4180984;28;20481;-41
2021/12/03 05:56:47;;;;;;;0.35;0.35;;;;;;;;;;4163145;28;20111;-41
2021/12/03 05:58:49;;;;;;;0.35;0.30;;;;;;;;;;4181104;28;20052;-41
2021/12/03 06:00:50;;;;;;;0.30;0.30;;;;;;;;;;4181212;28;20063;-40
2021/12/03 06:02:52;;;;;;;0.65;0.25;;;;;;;;;;4180816;28;20106;-39
2021/12/03 06:04:54;;;;;;;0.30;0.30;;;;;;;;;;4181126;28;20049;-39
2021/12/03 06:06:55;;;;;;;0.22;0.22;;;;;;;;;;4180841;28;20558;-41
2021/12/03 06:08:58;;;;;;;0.40;0.30;;;;;;;;;;4180214;28;20052;-41
2021/12/03 06:10:59;;;;;;;0.55;0.30;;;;;;;;;;4180595;28;20056;-41
2021/12/03 06:13:00;;;;;;;0.60;0.35;;;;;;;;;;4180279;28;20065;-40
2021/12/03 06:15:01;;;;;;;0.50;0.30;;;;;;;;;;4163086;28;20123;-42
2021/12/03 06:17:03;;;;;;;0.40;0.30;;;;;;;;;;4162982;28;20057;-40
2021/12/03 06:19:04;;;;;;;0.35;0.30;;;;;;;;;;4180587;28;20115;-39
2021/12/03 06:21:08;;;;;;;0.38;0.30;;;;;;;;;;4180678;28;20067;-39
2021/12/03 06:23:09;;;;;;;0.88;0.43;;;;;;;;;;4179961;28;20114;-40
2021/12/03 06:25:12;;;;;;;0.40;0.20;;;;;;;;;;4180351;28;20057;-41
2021/12/03 06:27:13;;;;;;;0.30;0.30;;;;;;;;;;4180507;28;20056;-42
2021/12/03 06:29:14;;;;;;;0.32;0.30;;;;;;;;;;4162792;28;20054;-43
2021/12/03 06:31:15;;;;;;;0.50;0.40;;;;;;;;;;4162955;28;20061;-38
2021/12/03 06:33:18;;;;;;;0.70;0.55;;;;;;;;;;4180347;28;20087;-41
2021/12/03 06:35:20;;;;;;;0.20;0.20;;;;;;;;;;4180598;28;20049;-40
2021/12/03 06:37:21;;;;;;;0.80;0.30;;;;;;;;;;4180338;28;20080;-38
2021/12/03 06:39:22;;;;;;;0.43;0.40;;;;;;;;;;4162238;28;20069;-39
2021/12/03 06:41:24;;;;;;;0.80;0.50;;;;;;;;;;4180491;28;20095;-40
2021/12/03 06:43:25;;;;;;;0.30;0.30;;;;;;;;;;4162155;28;20095;-38
2021/12/03 06:45:26;;;;;;;0.40;0.40;;;;;;;;;;4151283;28;20448;-42
2021/12/03 06:47:27;;;;;;;0.55;0.40;;;;;;;;;;4155874;28;20108;-39
2021/12/03 06:49:30;;;;;;;0.55;0.43;;;;;;;;;;4145719;28;20490;-41
2021/12/03 06:51:31;;;;;;;0.30;0.20;;;;;;;;;;4146194;28;20077;-40
2021/12/03 06:53:45;;;;;;;0.50;0.35;;;;;;;;;;4149367;28;20104;-41
2021/12/03 06:55:48;;;;;;;0.82;0.40;;;;;;;;;;4151592;28;20046;-37
2021/12/03 06:57:49;;;;;;;1.50;0.30;;;;;;;;;;4155670;28;20061;-40
2021/12/03 06:59:50;;;;;;;0.80;0.40;;;;;;;;;;4156861;28;20061;-39
2021/12/03 07:01:52;;;;;;;0.30;0.30;;;;;;;;;;4139403;28;20160;-41
2021/12/03 07:03:53;;;;;;;1.75;0.30;;;;;;;;;;4158139;28;20084;-38
2021/12/03 07:05:54;;;;;;;0.75;0.50;;;;;;;;;;4151790;28;20050;-41
2021/12/03 07:07:56;;;;;;;0.85;0.50;;;;;;;;;;4159233;28;20053;-39
2021/12/03 07:09:57;;;;;;;0.40;0.40;;;;;;;;;;4165520;28;20489;-37
2021/12/03 07:11:58;;;;;;;0.70;0.30;;;;;;;;;;4162831;28;20057;-41
2021/12/03 07:14:00;;;;;;;0.63;0.30;;;;;;;;;;4158953;28;20453;-41
2021/12/03 07:16:04;;;;;;;2.33;0.60;;;;;;;;;;4163270;28;20061;-41
2021/12/03 07:18:06;;;;;;;0.47;0.32;;;;;;;;;;4161789;28;20057;-41
2021/12/03 07:20:08;;;;;;;0.50;0.50;;;;;;;;;;4137059;28;20050;-37
2021/12/03 07:22:09;;;;;;;0.63;0.50;;;;;;;;;;4156284;28;20571;-42
2021/12/03 07:24:10;;;;;;;0.77;0.30;;;;;;;;;;4165439;28;20123;-41
2021/12/03 07:26:12;;;;;;;0.40;0.40;;;;;;;;;;4160234;28;20041;-40
2021/12/03 07:28:16;;;;;;;0.82;0.40;;;;;;;;;;4169674;28;20548;-40
2021/12/03 07:30:18;;;;;;;0.50;0.40;;;;;;;;;;4167078;28;20528;-40
2021/12/03 07:32:21;;;;;;;0.60;0.40;;;;;;;;;;4168058;28;20102;-39
2021/12/03 07:34:22;;;;;;;0.40;0.40;;;;;;;;;;4170940;28;20533;-40
2021/12/03 07:36:23;;;;;;;0.30;0.30;;;;;;;;;;4165740;28;20060;-39
2021/12/03 07:38:24;;;;;;;0.70;0.40;;;;;;;;;;4168316;28;20056;-40
2021/12/03 07:40:26;;;;;;;0.50;0.50;;;;;;;;;;4164045;28;20159;-41
2021/12/03 07:42:27;;;;;;;0.40;0.40;;;;;;;;;;4164902;28;20069;-40
2021/12/03 07:44:28;;;;;;;0.50;0.40;;;;;;;;;;4167392;28;20061;-41
2021/12/03 07:46:29;;;;;;;4.18;0.50;;;;;;;;;;4160821;28;20053;-40
2021/12/03 07:48:30;;;;;;;0.52;0.40;;;;;;;;;;4158444;28;20100;-42
2021/12/03 07:50:36;;;;;;;0.85;0.50;;;;;;;;;;4166487;28;20057;-41
2021/12/03 07:52:38;;;;;;;0.50;0.32;;;;;;;;;;4161036;28;20057;-40
2021/12/03 07:54:39;;;;;;;1.08;0.68;;;;;;;;;;4146016;28;20088;-41
2021/12/03 07:56:40;;;;;;;0.95;0.63;;;;;;;;;;4165726;28;20069;-39
2021/12/03 07:58:41;;;;;;;0.43;0.30;;;;;;;;;;4163290;28;20048;-40
2021/12/03 08:00:44;;;;;;;1.40;0.55;;;;;;;;;;4156495;28;20460;-40
2021/12/03 08:02:45;;;;;;;0.65;0.50;;;;;;;;;;4152016;28;20056;-43
2021/12/03 08:04:46;;;;;;;0.60;0.50;;;;;;;;;;4145375;28;20068;-40
2021/12/03 08:06:51;;;;;;;0.70;0.45;;;;;;;;;;4166435;28;20083;-42
2021/12/03 08:08:52;;;;;;;0.73;0.45;;;;;;;;;;4166577;28;20068;-41
2021/12/03 08:10:55;;;;;;;0.70;0.60;;;;;;;;;;4165205;28;20111;-40
2021/12/03 08:12:56;;;;;;;0.75;0.40;;;;;;;;;;4165202;28;20094;-39
2021/12/03 08:14:57;;;;;;;0.43;0.35;;;;;;;;;;4143619;28;20705;-40
2021/12/03 08:16:58;;;;;;;0.47;0.47;;;;;;;;;;4155967;28;20054;-41
2021/12/03 08:18:59;;;;;;;2.13;0.60;;;;;;;;;;4167708;28;20060;-37
2021/12/03 08:21:02;;;;;;;0.38;0.38;;;;;;;;;;4165439;28;20064;-40
2021/12/03 08:23:04;;;;;;;0.40;0.40;;;;;;;;;;4160118;28;20064;-39
2021/12/03 08:25:06;;;;;;;1.10;0.60;;;;;;;;;;4167633;28;20076;-39
2021/12/03 08:27:07;;;;;;;0.60;0.50;;;;;;;;;;4168270;28;20065;-41
2021/12/03 08:29:08;;;;;;;0.52;0.40;;;;;;;;;;4170691;28;20060;-40
2021/12/03 08:31:14;;;;;;;1.13;0.60;;;;;;;;;;4169021;28;20424;-40
2021/12/03 08:33:16;;;;;;;0.73;0.60;;;;;;;;;;4166908;28;20101;-40
2021/12/03 08:35:17;;;;;;;0.52;0.50;;;;;;;;;;4162251;28;20067;-41
2021/12/03 08:37:18;;;;;;;0.47;0.40;;;;;;;;;;4165572;28;20116;-39
2021/12/03 08:39:19;;;;;;;0.65;0.45;;;;;;;;;;4160747;28;20064;-41
2021/12/03 08:41:21;;;;;;;0.60;0.55;;;;;;;;;;4164779;28;20061;-42
2021/12/03 08:43:22;;;;;;;1.00;0.60;;;;;;;;;;4166346;28;20441;-39
2021/12/03 08:45:24;;;;;;;0.80;0.50;;;;;;;;;;4163076;28;20057;-37
2021/12/03 08:47:25;;;;;;;0.68;0.50;;;;;;;;;;4156373;28;20057;-40
2021/12/03 08:49:32;;;;;;;0.65;0.60;;;;;;;;;;4160706;28;20129;-42
2021/12/03 08:51:48;;;;;;;0.65;0.50;;;;;;;;;;4164627;28;20061;-40
2021/12/03 08:56:09;;;;;;;;;;;;;;;;;;4157935;28;20859;-42
2021/12/03 08:58:11;;;;;;;0.73;0.60;;;;;;;;;;4162914;28;19925;-41
2021/12/03 09:00:15;;;;;;;1.13;0.50;;;;;;;;;;4159728;28;20057;-41
2021/12/03 09:02:16;;;;;;;0.75;0.45;;;;;;;;;;4158744;28;20172;-41
2021/12/03 09:04:17;;;;;;;0.90;0.70;;;;;;;;;;4157516;28;20647;-40
2021/12/03 09:06:18;;;;;;;1.65;0.70;;;;;;;;;;4166493;28;20057;-40
2021/12/03 09:08:19;;;;;;;0.98;0.57;;;;;;;;;;4146540;28;20057;-41
2021/12/03 09:10:21;;;;;;;1.00;0.80;;;;;;;;;;4166725;28;20072;-41
2021/12/03 09:12:22;;;;;;;0.93;0.60;;;;;;;;;;4154629;28;20401;-38
2021/12/03 09:14:43;;;;;;;1.25;0.57;;;;;;;;;;4166935;28;20060;-40
2021/12/03 09:16:49;;;;;;;1.33;0.77;;;;;;;;;;4169132;28;20099;-40
2021/12/03 09:18:52;;;;;;;1.00;0.50;;;;;;;;;;4157223;28;20143;-43
2021/12/03 09:21:15;;;;;;;0.88;0.60;;;;;;;;;;4157750;28;20061;-40
2021/12/03 09:23:28;;;;;;;0.90;0.80;;;;;;;;;;4167004;28;20195;-41
2021/12/03 09:25:39;;;;;;;0.60;0.50;;;;;;;;;;4158158;28;20052;-38
2021/12/03 09:27:40;;;;;;;0.60;0.45;;;;;;;;;;4163415;28;20389;-40
2021/12/03 09:29:42;;;;;;;1.10;0.65;;;;;;;;;;4165612;28;20068;-40
2021/12/03 09:31:46;;;;;;;0.73;0.65;;;;;;;;;;4167426;28;20100;-40
2021/12/03 09:33:49;;;;;;;1.00;0.68;;;;;;;;;;4147061;28;20437;-41
2021/12/03 09:35:55;;;;;;;1.13;0.63;;;;;;;;;;4163717;28;20064;-40
2021/12/03 09:37:56;;;;;;;0.60;0.40;;;;;;;;;;4161958;28;20087;-42
2021/12/03 09:40:04;;;;;;;0.50;0.50;;;;;;;;;;4145684;28;20118;-39
2021/12/03 09:42:05;;;;;;;0.63;0.50;;;;;;;;;;4157163;28;20056;-41
2021/12/03 09:44:06;;;;;;;0.95;0.77;;;;;;;;;;4158524;28;20091;-39
2021/12/03 09:46:20;;;;;;;0.85;0.50;;;;;;;;;;4158145;28;20115;-40
2021/12/03 09:48:33;;;;;;;0.60;0.40;;;;;;;;;;4159038;28;20053;-41
2021/12/03 09:50:34;;;;;;;1.13;0.70;;;;;;;;;;4160427;28;20114;-39
2021/12/03 09:54:43;;;;;;;0.70;0.60;;;;;;;;;;4166546;28;20046;-41
2021/12/03 09:56:46;;;;;;;0.68;0.50;;;;;;;;;;4163569;28;20061;-36
2021/12/03 10:01:16;;;;;;;0.63;0.57;;;;;;;;;;4152772;28;20061;-41
2021/12/03 10:10:51;;;;;;;1.00;0.60;;;;;;;;;;4157062;28;19983;-37
2021/12/03 10:12:47;;;;;;;0.95;0.57;;;;;;;;;;4158811;28;20056;-37
2021/12/03 10:19:36;;;;;;;1.50;0.73;;;;;;;;;;4162778;28;20155;-42
2021/12/03 10:27:20;;;;;;;0.88;0.65;;;;;;;;;;4145087;28;20057;-37
2021/12/03 10:29:34;;;;;;;0.43;0.35;;;;;;;;;;4152563;28;20104;-40
2021/12/03 10:34:26;;;;;;;1.13;0.57;;;;;;;;;;4149544;28;20497;-41
2021/12/03 10:36:46;;;;;;;1.40;0.82;;;;;;;;;;4159519;28;20098;-40
2021/12/03 10:38:57;;;;;;;1.15;0.80;;;;;;;;;;4159944;28;20053;-39
2021/12/03 10:43:19;;;;;;;0.70;0.63;;;;;;;;;;4159000;28;20111;-43
2021/12/03 10:45:33;;;;;;;1.42;0.60;;;;;;;;;;4166211;28;20057;-40
2021/12/03 10:49:57;;;;;;;0.60;0.60;;;;;;;;;;4171303;28;20436;-40
2021/12/03 10:52:12;;;;;;;0.63;0.40;;;;;;;;;;4168333;28;20057;-40
2021/12/03 10:59:19;;;;;;;0.65;0.50;;;;;;;;;;4168690;28;20244;-40
2021/12/03 11:14:53;;;;;;;0.77;0.50;;;;;;;;;;4150852;28;20052;-41
2021/12/03 11:30:09;;;;;;;0.93;0.70;;;;;;;;;;4169812;28;20072;-39
2021/12/03 11:37:01;;;;;;;2.33;0.70;;;;;;;;;;4165547;28;20057;-41
2021/12/03 11:44:23;;;;;;;2.05;0.68;;;;;;;;;;4166354;28;20122;-40
2021/12/03 11:51:32;;;;;;;0.98;0.60;;;;;;;;;;4146104;28;20376;-41
2021/12/03 11:58:48;;;;;;;1.85;1.15;;;;;;;;;;4166355;28;20052;-42
2021/12/03 12:04:03;;;;;;;1.17;0.70;;;;;;;;;;4161301;28;20057;-41
2021/12/03 12:09:42;;;;;;;1.15;0.60;;;;;;;;;;4164931;28;20610;-41
2021/12/03 12:33:56;;;;;;;1.02;0.77;;;;;;;;;;4165178;28;20052;-42
2021/12/03 12:35:54;;;;;;;1.27;0.77;;;;;;;;;;4176865;28;20053;-41
2021/12/03 12:45:56;;;;;;;1.52;0.82;;;;;;;;;;4168659;28;20049;-40
2021/12/03 12:49:13;;;;;;;1.33;0.70;;;;;;;;;;4151702;28;20086;-41
2021/12/03 13:02:38;;;;;;;4.22;0.60;;;;;;;;;;4142194;28;20064;-40
2021/12/03 13:20:37;;;;;;;1.73;0.60;;;;;;;;;;4155336;28;20681;-42
2021/12/03 13:25:55;;;;;;;0.85;0.50;;;;;;;;;;4162762;28;20097;-42
2021/12/03 13:31:17;;;;;;;1.52;0.75;;;;;;;;;;4163160;28;20080;-43
2021/12/03 13:38:23;;;;;;;0.70;0.70;;;;;;;;;;4158542;28;19929;-42
2021/12/03 14:02:51;;;;;;;0.98;0.77;;;;;;;;;;4153336;28;20798;-40
2021/12/03 14:07:24;;;;;;;0.80;0.50;;;;;;;;;;4149541;28;21176;-39
2021/12/03 14:40:11;;;;;;;1.48;0.68;;;;;;;;;;4172455;28;20380;-42
2021/12/03 14:42:36;;;;;;;0.60;0.50;;;;;;;;;;4169551;28;20223;-43
2021/12/03 14:44:55;;;;;;;0.43;0.40;;;;;;;;;;4165779;28;20053;-41
2021/12/03 14:47:45;;;;;;;2.93;0.53;;;;;;;;;;4181216;28;20057;-42
2021/12/03 14:56:18;;;;;;;0.98;0.45;;;;;;;;;;4181966;28;20075;-42
2021/12/03 14:58:32;;;;;;;0.85;0.50;;;;;;;;;;4177527;28;20518;-41
2021/12/03 15:00:49;;;;;;;0.50;0.40;;;;;;;;;;4173759;28;20057;-41
2021/12/03 15:03:07;;;;;;;1.15;0.55;;;;;;;;;;4163284;28;20104;-42
2021/12/03 15:05:22;;;;;;;2.20;0.50;;;;;;;;;;4167974;28;20100;-39
2021/12/03 15:07:32;;;;;;;0.60;0.38;;;;;;;;;;4177476;28;20099;-42
2021/12/03 15:09:36;;;;;;;2.40;0.40;;;;;;;;;;4168046;28;20456;-40
2021/12/03 15:12:13;;;;;;;1.10;0.60;;;;;;;;;;4170472;28;20421;-41
2021/12/03 15:56:41;;;;;;;0.80;0.70;;;;;;;;;;4182668;28;20087;-37
2021/12/03 16:08:01;;;;;;;1.05;0.50;;;;;;;;;;4199116;28;20412;-40
2021/12/03 16:10:19;;;;;;;0.60;0.40;;;;;;;;;;4199035;28;20056;-40
2021/12/03 16:19:51;;;;;;;;;;;;;;;;;;4199496;28;20056;-39
2021/12/03 16:21:54;;;;;;;0.73;0.60;;;;;;;;;;4188417;28;19920;-41
2021/12/03 16:26:05;;;;;;;0.60;0.45;;;;;;;;;;4198808;28;20090;-41
2021/12/03 16:44:56;;;;;;;0.50;0.47;;;;;;;;;;4164870;28;19920;-40
2021/12/03 16:53:30;;;;;;;0.38;0.38;;;;;;;;;;4198132;28;20162;-42
2021/12/03 16:55:31;;;;;;;0.40;0.40;;;;;;;;;;4198530;28;20067;-42
2021/12/03 16:57:34;;;;;;;0.70;0.40;;;;;;;;;;4198657;28;20056;-41
2021/12/03 16:59:38;;;;;;;0.55;0.45;;;;;;;;;;4180765;28;20053;-41
2021/12/03 17:01:46;;;;;;;0.65;0.40;;;;;;;;;;4198354;28;20499;-41
2021/12/03 17:16:02;;;;;;;;;;;;;;;;;;4198711;28;20052;-39
2021/12/03 17:20:54;;;;;;;0.75;0.40;;;;;;;;;;4198049;28;20113;-42
2021/12/03 17:46:14;;;;;;;1.95;0.50;;;;;;;;;;4197511;28;20078;-41
2021/12/03 17:48:23;;;;;;;0.32;0.20;;;;;;;;;;4197410;28;20068;-41
2021/12/03 17:50:43;;;;;;;0.40;0.28;;;;;;;;;;4197446;28;20057;-38
2021/12/03 17:53:22;;;;;;;0.65;0.30;;;;;;;;;;4196320;28;20511;-40
2021/12/03 17:57:50;;;;;;;0.35;0.35;;;;;;;;;;4179690;28;20103;-40
2021/12/03 17:59:52;;;;;;;0.82;0.60;;;;;;;;;;4197497;28;20492;-40
2021/12/03 18:02:05;;;;;;;0.52;0.40;;;;;;;;;;4197653;28;20056;-40
2021/12/03 18:04:10;;;;;;;0.52;0.40;;;;;;;;;;4197263;28;20106;-40
2021/12/03 18:45:11;;;;;;;0.60;0.40;;;;;;;;;;4196956;28;20395;-40
2021/12/03 18:47:40;;;;;;;0.50;0.40;;;;;;;;;;4196876;28;20057;-37